createdAt,value
2023-06-30T04:57:34.381Z,99684.59
2023-06-30T05:00:36.952Z,99719.72
2023-06-30T05:03:39.932Z,99735.84
2023-06-30T05:06:42.817Z,99834.91
2023-06-30T05:09:45.501Z,99932.22
2023-06-30T05:12:50.011Z,99965.53
2023-06-30T05:15:52.602Z,99979.16
2023-06-30T05:18:55.273Z,99982.03
2023-06-30T05:21:57.975Z,99982.53
2023-06-30T05:25:00.686Z,99976.28
2023-06-30T05:28:04.682Z,99991.34
2023-06-30T05:31:07.353Z,99988.63
2023-06-30T05:34:16.397Z,99982.53
2023-06-30T05:37:18.962Z,99988.25
2023-06-30T05:40:21.567Z,99992.69
2023-06-30T05:43:25.587Z,100006.94
2023-06-30T05:46:28.223Z,100012.22
2023-06-30T05:49:31.953Z,100006.06
2023-06-30T05:52:34.503Z,100009.81
2023-06-30T05:55:37.167Z,100024.47
2023-06-30T05:58:41.880Z,100013.31
2023-06-30T06:01:44.537Z,100014.72
2023-06-30T06:04:47.275Z,100014.13
2023-06-30T06:07:50.288Z,100026.84
2023-06-30T06:10:52.847Z,100023.59
2023-06-30T06:13:56.994Z,100026.63
2023-06-30T06:16:59.687Z,100016.38
2023-06-30T06:20:04.498Z,100025.56
2023-06-30T06:23:07.099Z,100019.00
2023-06-30T06:26:12.784Z,100019.44
2023-06-30T06:29:22.676Z,100018.66
2023-06-30T06:32:25.333Z,100014.06
2023-06-30T06:35:28.015Z,100016.31
2023-06-30T06:38:32.345Z,100036.78
2023-06-30T06:41:34.930Z,100023.34
2023-06-30T06:44:40.571Z,100030.28
2023-06-30T06:48:22.255Z,100015.81
2023-06-30T06:51:25.462Z,100020.25
2023-06-30T06:54:29.249Z,100030.31
2023-06-30T06:57:31.884Z,100029.63
2023-06-30T07:00:36.558Z,100038.06
2023-06-30T07:03:39.611Z,100037.41
2023-06-30T07:06:42.326Z,100030.00
2023-06-30T07:09:44.921Z,100026.97
2023-06-30T07:12:47.538Z,100031.53
2023-06-30T07:15:51.896Z,100028.81
2023-06-30T07:18:54.620Z,100032.56
2023-06-30T07:21:57.219Z,100010.81
2023-06-30T07:25:03.640Z,100011.53
2023-06-30T07:28:08.848Z,100010.75
2023-06-30T07:31:12.825Z,100005.63
2023-06-30T07:34:15.768Z,100000.50
2023-06-30T07:37:18.389Z,100017.38
2023-06-30T07:40:24.000Z,100017.50
2023-06-30T07:43:27.139Z,100029.09
2023-06-30T07:46:32.485Z,100022.88
2023-06-30T07:49:35.241Z,100027.91
2023-06-30T07:52:38.760Z,100031.28
2023-06-30T07:55:41.294Z,100025.81
2023-06-30T07:58:44.130Z,100045.59
2023-06-30T08:01:48.098Z,100031.00
2023-06-30T08:04:51.780Z,100027.81
2023-06-30T08:07:54.557Z,100032.19
2023-06-30T08:10:57.126Z,100030.41
2023-06-30T08:14:03.881Z,100024.84
2023-06-30T08:17:08.202Z,100017.88
2023-06-30T08:20:12.714Z,100009.84
2023-06-30T08:23:15.594Z,100013.28
2023-06-30T08:26:18.207Z,100010.19
2023-06-30T08:29:20.844Z,100014.94
2023-06-30T08:32:24.734Z,100021.16
2023-06-30T08:35:27.335Z,100020.31
2023-06-30T08:38:29.919Z,100023.84
2023-06-30T08:41:34.955Z,100023.81
2023-06-30T08:44:38.724Z,100021.72
2023-06-30T08:47:42.924Z,100010.81
2023-06-30T08:50:46.800Z,100013.81
2023-06-30T08:53:50.550Z,100010.41
2023-06-30T08:56:56.586Z,100008.53
2023-06-30T09:00:02.406Z,100017.53
2023-06-30T09:03:10.484Z,100015.66
2023-06-30T09:06:14.994Z,100024.84
2023-06-30T09:09:27.778Z,100025.03
2023-06-30T09:12:33.072Z,100034.13
2023-06-30T09:15:36.549Z,100033.16
2023-06-30T09:18:42.226Z,100024.53
2023-06-30T09:21:45.421Z,100024.84
2023-06-30T09:24:49.165Z,100030.03
2023-06-30T09:27:52.271Z,100031.28
2023-06-30T09:31:01.142Z,100034.41
2023-06-30T09:34:12.853Z,100034.66
2023-06-30T09:37:17.057Z,100042.53
2023-06-30T09:40:25.465Z,100047.91
2023-06-30T09:43:30.321Z,100048.59
2023-06-30T09:46:34.639Z,100054.53
2023-06-30T09:49:38.665Z,100038.84
2023-06-30T09:52:42.990Z,100045.31
2023-06-30T09:55:50.508Z,100041.81
2023-06-30T09:58:57.920Z,100040.84
2023-06-30T10:02:01.153Z,100041.66
2023-06-30T10:05:05.395Z,100034.47
2023-06-30T10:08:12.194Z,100043.13
2023-06-30T10:11:14.869Z,100032.09
2023-06-30T10:14:21.605Z,100027.25
2023-06-30T10:17:26.968Z,100026.44
2023-06-30T10:20:46.296Z,100020.28
2023-06-30T10:23:57.464Z,100029.94
2023-06-30T10:27:02.511Z,100033.38
2023-06-30T10:30:10.926Z,100030.13
2023-06-30T10:33:13.785Z,100020.31
2023-06-30T10:36:19.462Z,100019.53
2023-06-30T10:39:22.387Z,100008.91
2023-06-30T10:42:28.509Z,100000.47
2023-06-30T10:45:32.000Z,99996.56
2023-06-30T10:48:34.654Z,99981.25
2023-06-30T10:51:38.824Z,99976.41
2023-06-30T10:54:43.337Z,99951.00
2023-06-30T10:57:51.738Z,99943.88
2023-06-30T11:01:07.762Z,99913.50
2023-06-30T11:04:13.781Z,99894.06
2023-06-30T11:07:20.248Z,99891.44
2023-06-30T11:10:35.166Z,99879.72
2023-06-30T11:13:38.491Z,99864.41
2023-06-30T11:17:03.087Z,99858.13
2023-06-30T11:20:13.576Z,99864.69
2023-06-30T11:23:20.098Z,99859.66
2023-06-30T11:26:22.730Z,99863.50
2023-06-30T11:29:25.392Z,99876.53
2023-06-30T11:32:29.370Z,99897.50
2023-06-30T11:35:34.153Z,99901.22
2023-06-30T11:38:44.794Z,99938.34
2023-06-30T11:41:47.382Z,99963.56
2023-06-30T11:44:51.074Z,99952.28
2023-06-30T11:47:55.469Z,99946.75
2023-06-30T11:50:58.067Z,99949.28
2023-06-30T11:54:02.024Z,99948.03
2023-06-30T11:57:05.529Z,99939.22
2023-06-30T12:00:10.324Z,99938.34
2023-06-30T12:03:16.825Z,99948.13
2023-06-30T12:06:22.355Z,99938.63
2023-06-30T12:09:26.384Z,99942.03
2023-06-30T12:12:29.855Z,99949.91
2023-06-30T12:15:33.199Z,99954.13
2023-06-30T12:18:38.364Z,99959.44
2023-06-30T12:21:52.735Z,99969.31
2023-06-30T12:25:00.801Z,99975.22
2023-06-30T12:28:06.850Z,99976.03
2023-06-30T12:31:09.469Z,99969.78
2023-06-30T12:34:12.174Z,99978.66
2023-06-30T12:37:17.783Z,99969.69
2023-06-30T12:40:21.721Z,99956.91
2023-06-30T12:43:25.881Z,99951.09
2023-06-30T12:46:28.617Z,99954.34
2023-06-30T12:49:31.229Z,99933.72
2023-06-30T12:52:33.849Z,99944.03
2023-06-30T12:55:37.799Z,99953.69
2023-06-30T12:58:40.327Z,99976.59
2023-06-30T13:01:43.071Z,99974.09
2023-06-30T13:04:45.739Z,99977.38
2023-06-30T13:07:50.179Z,99973.63
2023-06-30T13:10:54.207Z,99986.63
2023-06-30T13:13:56.903Z,99985.88
2023-06-30T13:16:59.526Z,99974.44
2023-06-30T13:20:02.167Z,99966.75
2023-06-30T13:23:14.399Z,99968.84
2023-06-30T13:26:21.520Z,99958.72
2023-06-30T13:29:24.077Z,99959.63
2023-06-30T13:32:26.739Z,99958.63
2023-06-30T13:35:29.498Z,99948.91
2023-06-30T13:38:32.264Z,99934.50
2023-06-30T13:41:37.451Z,99947.91
2023-06-30T13:44:40.741Z,99955.38
2023-06-30T13:47:43.312Z,99972.88
2023-06-30T13:50:46.031Z,99982.88
2023-06-30T13:53:48.830Z,99986.97
2023-06-30T13:56:54.090Z,99986.81
2023-06-30T13:59:56.762Z,99982.03
2023-06-30T14:02:59.486Z,100003.38
2023-06-30T14:06:02.176Z,99996.75
2023-06-30T14:09:04.945Z,100006.63
2023-06-30T14:12:10.018Z,100013.84
2023-06-30T14:15:12.710Z,100005.53
2023-06-30T14:18:15.412Z,100003.94
2023-06-30T14:21:21.446Z,100011.28
2023-06-30T14:24:24.105Z,100029.72
2023-06-30T14:27:30.908Z,100028.06
2023-06-30T14:30:35.424Z,100017.59
2023-06-30T14:33:41.614Z,100025.69
2023-06-30T14:36:47.332Z,100032.41
2023-06-30T14:39:49.950Z,100030.19
2023-06-30T14:42:53.835Z,100020.50
2023-06-30T14:45:56.529Z,100028.69
2023-06-30T14:48:59.167Z,100040.28
2023-06-30T14:52:01.786Z,100035.66
2023-06-30T14:55:04.688Z,100041.44
2023-06-30T14:58:09.893Z,100036.28
2023-06-30T15:01:14.653Z,100044.56
2023-06-30T15:04:26.702Z,100037.41
2023-06-30T15:07:33.322Z,100024.69
2023-06-30T15:10:35.976Z,100036.41
2023-06-30T15:13:43.498Z,100037.63
2023-06-30T15:16:48.841Z,100036.47
2023-06-30T15:19:53.935Z,100038.53
2023-06-30T15:22:56.522Z,100039.94
2023-06-30T15:26:01.046Z,100032.19
2023-06-30T15:29:04.910Z,100035.56
2023-06-30T15:32:07.719Z,100031.94
2023-06-30T15:35:10.936Z,100035.25
2023-06-30T15:38:13.513Z,100040.31
2023-06-30T15:41:22.180Z,100038.47
2023-06-30T15:44:26.765Z,100039.53
2023-06-30T15:47:29.577Z,100043.28
2023-06-30T15:50:32.863Z,100038.31
2023-06-30T15:53:35.521Z,100040.94
2023-06-30T15:56:38.067Z,100041.78
2023-06-30T15:59:41.995Z,100041.19
2023-06-30T16:02:44.578Z,100034.22
2023-06-30T16:05:47.540Z,100029.16
2023-06-30T16:08:50.316Z,100022.00
2023-06-30T16:11:52.944Z,100024.22
2023-06-30T16:14:56.843Z,100020.34
2023-06-30T16:17:59.423Z,100019.63
2023-06-30T16:21:02.048Z,100019.06
2023-06-30T16:24:04.847Z,100026.91
2023-06-30T16:27:07.462Z,100025.25
2023-06-30T16:30:28.679Z,100025.25
2023-06-30T16:33:33.865Z,100018.63
2023-06-30T16:36:38.516Z,100025.63
2023-06-30T16:39:41.874Z,100017.50
2023-06-30T16:42:44.420Z,99997.50
2023-06-30T16:45:48.556Z,99997.34
2023-06-30T16:48:51.401Z,99996.59
2023-06-30T16:51:53.989Z,99992.09
2023-06-30T16:54:56.555Z,99984.63
2023-06-30T16:57:59.182Z,99987.63
2023-06-30T17:01:03.120Z,99990.97
2023-06-30T17:04:05.899Z,100001.88
2023-06-30T17:07:11.300Z,100002.66
2023-06-30T17:10:14.828Z,99994.50
2023-06-30T17:13:17.463Z,99993.88
2023-06-30T17:16:23.928Z,99999.19
2023-06-30T17:19:28.676Z,99993.94
2023-06-30T17:22:31.611Z,100001.13
2023-06-30T17:25:36.679Z,99998.19
2023-06-30T17:28:39.630Z,99987.19
2023-06-30T17:31:43.623Z,99994.41
2023-06-30T17:34:46.221Z,99999.50
2023-06-30T17:37:48.927Z,99991.97
2023-06-30T17:40:51.605Z,99998.88
2023-06-30T17:43:56.687Z,99990.00
